Terminal Aerodrome Forecast
Issued by NWS

Home | Current Version | Previous Version | Graphics & Text | Print | Product List | Glossary On
Versions: 1 2 3 4 5 6 7 8 9 10 11 12 13 14 15 16 17 18 19
000
FTUS41 KCLE 241100
TAFFDY
TAF
KFDY 241124Z 2412/2512 34006KT P6SM SKC
     FM241400 02008KT P6SM BKN050
     FM241800 05006KT P6SM SKC
     FM250000 00000KT P6SM SKC=

USA.gov is the U.S. government's official web portal to all federal, state and local government web resources and services.